Time;durP1;ratioP1;P1;durP2;ratioP2;P2;SDS_P1;SDS_P2;PMS_P1;PMS_P2;Temp;Humidity;BMP_temperature;BMP_pressure;BME280_temperature;BME280_humidity;BME280_pressure;Samples;Min_cycle;Max_cycle;Signal;HPM_P1;HPM_P2
2022/04/05 00:00:48;;;;;;;;;2.00;2.00;;;;;;;;5094528;27;45494;-71
2022/04/05 00:03:14;;;;;;;;;1.25;1.25;;;;;;;;5088376;27;45417;-71
2022/04/05 00:05:39;;;;;;;;;3.00;3.00;;;;;;;;5091782;27;45379;-70
2022/04/05 00:08:04;;;;;;;;;2.00;1.50;;;;;;;;5089753;27;45478;-71
2022/04/05 00:10:29;;;;;;;;;1.50;1.50;;;;;;;;5084780;27;46098;-71
2022/04/05 00:12:55;;;;;;;;;1.00;1.00;;;;;;;;5077716;28;45277;-70
2022/04/05 00:15:20;;;;;;;;;1.00;1.00;;;;;;;;5079673;27;45310;-71
2022/04/05 00:17:45;;;;;;;;;0.00;0.00;;;;;;;;5084946;27;45442;-71
2022/04/05 00:20:10;;;;;;;;;2.00;2.00;;;;;;;;5066865;28;47343;-71
2022/04/05 00:22:36;;;;;;;;;2.00;2.00;;;;;;;;5076397;28;45466;-71
2022/04/05 00:25:01;;;;;;;;;3.00;2.00;;;;;;;;5076509;28;48359;-71
2022/04/05 00:27:26;;;;;;;;;2.00;2.00;;;;;;;;5078959;28;45446;-71
2022/04/05 00:29:52;;;;;;;;;2.00;2.00;;;;;;;;5076061;28;46704;-70
2022/04/05 00:32:17;;;;;;;;;1.25;1.25;;;;;;;;5074689;28;45407;-71
2022/04/05 00:34:42;;;;;;;;;1.75;1.75;;;;;;;;5067265;28;45474;-71
2022/04/05 00:37:07;;;;;;;;;2.50;2.00;;;;;;;;5063466;28;45406;-70
2022/04/05 00:39:33;;;;;;;;;1.75;1.00;;;;;;;;5077992;28;45347;-70
2022/04/05 00:41:58;;;;;;;;;2.00;2.00;;;;;;;;5059470;28;45903;-70
2022/04/05 00:44:24;;;;;;;;;2.00;2.00;;;;;;;;5076466;28;45763;-71
2022/04/05 00:46:51;;;;;;;;;1.50;1.50;;;;;;;;5076580;28;45383;-70
2022/04/05 00:49:20;;;;;;;;;2.00;2.00;;;;;;;;5078016;27;47242;-70
2022/04/05 00:51:45;;;;;;;;;2.00;2.00;;;;;;;;5077357;28;45458;-71
2022/04/05 00:54:12;;;;;;;;;2.00;2.00;;;;;;;;5076885;28;45501;-71
2022/04/05 00:56:39;;;;;;;;;2.00;2.00;;;;;;;;5075220;28;45442;-70
2022/04/05 00:59:06;;;;;;;;;3.50;2.00;;;;;;;;5074321;28;46501;-71
2022/04/05 01:01:32;;;;;;;;;2.50;2.50;;;;;;;;5082270;27;45343;-71
2022/04/05 01:03:57;;;;;;;;;1.75;1.75;;;;;;;;5075442;28;45607;-71
2022/04/05 01:06:30;;;;;;;;;1.75;1.50;;;;;;;;5077603;28;45405;-70
2022/04/05 01:08:56;;;;;;;;;2.25;2.00;;;;;;;;5075234;27;45710;-71
2022/04/05 01:11:21;;;;;;;;;1.25;1.25;;;;;;;;5078976;27;45320;-70
2022/04/05 01:13:47;;;;;;;;;2.00;2.00;;;;;;;;5073705;28;45362;-70
2022/04/05 01:16:12;;;;;;;;;1.50;1.50;;;;;;;;5074767;28;45307;-71
2022/04/05 01:18:38;;;;;;;;;2.25;2.00;;;;;;;;5076830;28;46238;-70
2022/04/05 01:21:03;;;;;;;;;2.00;2.00;;;;;;;;5072697;28;45436;-71
2022/04/05 01:23:28;;;;;;;;;3.00;2.00;;;;;;;;5069478;28;45454;-70
2022/04/05 01:25:56;;;;;;;;;2.00;2.00;;;;;;;;5077945;27;45535;-70
2022/04/05 01:28:21;;;;;;;;;2.00;2.00;;;;;;;;5074313;28;47491;-70
2022/04/05 01:30:47;;;;;;;;;2.00;1.75;;;;;;;;5075373;28;45445;-71
2022/04/05 01:33:13;;;;;;;;;1.00;1.00;;;;;;;;5075571;28;45339;-71
2022/04/05 01:35:39;;;;;;;;;2.00;2.00;;;;;;;;5073455;28;45545;-70
2022/04/05 01:38:06;;;;;;;;;2.00;2.00;;;;;;;;5074283;27;46179;-70
2022/04/05 01:40:31;;;;;;;;;3.00;2.00;;;;;;;;5072012;28;45545;-70
2022/04/05 01:42:56;;;;;;;;;1.25;1.25;;;;;;;;5074255;28;45319;-70
2022/04/05 01:45:22;;;;;;;;;2.00;2.00;;;;;;;;5076591;28;45562;-70
2022/04/05 01:47:47;;;;;;;;;1.50;1.00;;;;;;;;5072804;28;46384;-71
2022/04/05 01:50:12;;;;;;;;;3.75;2.00;;;;;;;;5072437;28;45561;-70
2022/04/05 01:52:37;;;;;;;;;2.50;2.00;;;;;;;;5072126;28;45511;-70
2022/04/05 01:55:03;;;;;;;;;3.00;3.00;;;;;;;;5075551;28;45688;-71
2022/04/05 01:57:29;;;;;;;;;2.00;2.00;;;;;;;;5076209;28;47076;-70
2022/04/05 01:59:54;;;;;;;;;2.00;2.00;;;;;;;;5073744;28;45307;-71
2022/04/05 02:02:19;;;;;;;;;2.00;2.00;;;;;;;;5071410;28;45667;-71
2022/04/05 02:04:44;;;;;;;;;2.00;2.00;;;;;;;;5073536;28;45292;-70
2022/04/05 02:07:16;;;;;;;;;2.50;2.00;;;;;;;;5073441;28;45296;-70
2022/04/05 02:09:42;;;;;;;;;2.00;2.00;;;;;;;;5039234;27;1169714;-70
2022/04/05 02:12:09;;;;;;;;;1.00;1.00;;;;;;;;5077107;28;45634;-71
2022/04/05 02:14:35;;;;;;;;;3.00;3.00;;;;;;;;5075625;27;45619;-70
2022/04/05 02:17:00;;;;;;;;;2.75;2.75;;;;;;;;5066142;28;46503;-70
2022/04/05 02:19:25;;;;;;;;;1.00;1.00;;;;;;;;5071985;28;45586;-71
2022/04/05 02:21:50;;;;;;;;;2.00;2.00;;;;;;;;5075104;28;45463;-70
2022/04/05 02:24:15;;;;;;;;;1.50;1.50;;;;;;;;5076475;28;45510;-70
2022/04/05 02:26:41;;;;;;;;;1.00;1.00;;;;;;;;5073742;28;46251;-70
2022/04/05 02:29:06;;;;;;;;;2.00;2.00;;;;;;;;5074775;28;45319;-70
2022/04/05 02:31:31;;;;;;;;;3.00;2.00;;;;;;;;5075113;28;46170;-71
2022/04/05 02:33:57;;;;;;;;;2.00;2.00;;;;;;;;5074511;28;45392;-70
2022/04/05 02:36:22;;;;;;;;;1.50;1.50;;;;;;;;5076408;28;45394;-70
2022/04/05 02:38:47;;;;;;;;;1.75;1.75;;;;;;;;5074832;27;45442;-71
2022/04/05 02:41:12;;;;;;;;;2.50;2.50;;;;;;;;5080574;27;45458;-70
2022/04/05 02:43:37;;;;;;;;;2.00;2.00;;;;;;;;5074234;28;45383;-70
2022/04/05 02:46:03;;;;;;;;;2.75;2.25;;;;;;;;5074183;28;46333;-71
2022/04/05 02:48:29;;;;;;;;;1.00;1.00;;;;;;;;5076191;28;45360;-71
2022/04/05 02:50:54;;;;;;;;;2.00;2.00;;;;;;;;5076318;27;45420;-70
2022/04/05 02:53:19;;;;;;;;;2.00;2.00;;;;;;;;5079673;27;45194;-70
2022/04/05 02:55:45;;;;;;;;;2.00;2.00;;;;;;;;5075170;28;45599;-70
2022/04/05 02:58:11;;;;;;;;;1.25;1.25;;;;;;;;5074470;28;45845;-70
2022/04/05 03:00:36;;;;;;;;;2.50;2.00;;;;;;;;5070942;28;45361;-71
2022/04/05 03:03:03;;;;;;;;;2.00;2.00;;;;;;;;5073368;28;45562;-70
2022/04/05 03:05:28;;;;;;;;;2.25;2.25;;;;;;;;5071912;28;45611;-70
2022/04/05 03:07:53;;;;;;;;;3.00;3.00;;;;;;;;5064448;28;45616;-70
2022/04/05 03:10:18;;;;;;;;;2.00;2.00;;;;;;;;5077778;27;45640;-70
2022/04/05 03:12:43;;;;;;;;;2.75;2.75;;;;;;;;5096274;27;45378;-70
2022/04/05 03:15:09;;;;;;;;;2.00;2.00;;;;;;;;5092172;27;46532;-70
2022/04/05 03:17:34;;;;;;;;;3.00;3.00;;;;;;;;5092920;27;45308;-70
2022/04/05 03:20:00;;;;;;;;;1.50;1.50;;;;;;;;5092040;27;45370;-71
2022/04/05 03:22:26;;;;;;;;;2.25;2.00;;;;;;;;5093935;27;45508;-71
2022/04/05 03:24:51;;;;;;;;;3.50;3.00;;;;;;;;5094469;27;45531;-71
2022/04/05 03:27:16;;;;;;;;;3.25;1.75;;;;;;;;5095062;27;45487;-71
2022/04/05 03:29:42;;;;;;;;;2.75;2.75;;;;;;;;5092676;27;45429;-71
2022/04/05 03:32:08;;;;;;;;;1.75;1.25;;;;;;;;5093870;27;45390;-70
2022/04/05 03:34:34;;;;;;;;;1.00;1.00;;;;;;;;5093903;27;46165;-70
2022/04/05 03:36:59;;;;;;;;;2.25;2.25;;;;;;;;5095810;27;45403;-70
2022/04/05 03:39:24;;;;;;;;;1.75;1.75;;;;;;;;5095290;27;45433;-71
2022/04/05 03:41:49;;;;;;;;;2.00;2.00;;;;;;;;5094714;27;45451;-71
2022/04/05 03:44:15;;;;;;;;;2.00;2.00;;;;;;;;5092662;27;46162;-70
2022/04/05 03:46:40;;;;;;;;;2.00;2.00;;;;;;;;5091332;27;46050;-71
2022/04/05 03:49:06;;;;;;;;;2.50;2.50;;;;;;;;5092991;27;45452;-71
2022/04/05 03:51:31;;;;;;;;;1.25;1.00;;;;;;;;5095126;27;45434;-74
2022/04/05 03:53:56;;;;;;;;;3.00;2.00;;;;;;;;5091548;27;45500;-71
2022/04/05 03:56:22;;;;;;;;;2.00;2.00;;;;;;;;5094774;27;45379;-71
2022/04/05 03:58:47;;;;;;;;;2.75;2.25;;;;;;;;5092121;27;45802;-71
2022/04/05 04:01:12;;;;;;;;;3.00;3.00;;;;;;;;5093404;27;45394;-75
2022/04/05 04:03:38;;;;;;;;;3.75;3.00;;;;;;;;5096175;27;46581;-70
2022/04/05 04:06:03;;;;;;;;;3.75;3.00;;;;;;;;5093385;27;45315;-71
2022/04/05 04:08:28;;;;;;;;;3.00;2.25;;;;;;;;5092555;27;45402;-73
2022/04/05 04:10:53;;;;;;;;;2.75;2.75;;;;;;;;5091868;27;45521;-74
2022/04/05 04:13:19;;;;;;;;;4.25;2.25;;;;;;;;5082717;27;45480;-69
2022/04/05 04:15:44;;;;;;;;;2.00;2.00;;;;;;;;5093705;27;45392;-68
2022/04/05 04:18:09;;;;;;;;;2.00;2.00;;;;;;;;5094103;27;45377;-69
2022/04/05 04:20:35;;;;;;;;;2.25;2.00;;;;;;;;5091971;27;45537;-68
2022/04/05 04:23:00;;;;;;;;;2.25;2.25;;;;;;;;5090286;27;47345;-68
2022/04/05 04:25:26;;;;;;;;;5.00;3.00;;;;;;;;5093186;27;45532;-69
2022/04/05 04:27:51;;;;;;;;;4.25;4.25;;;;;;;;5093137;27;45307;-68
2022/04/05 04:30:16;;;;;;;;;5.50;3.00;;;;;;;;5094747;27;45249;-68
2022/04/05 04:32:41;;;;;;;;;2.00;2.00;;;;;;;;5093446;27;45452;-70
2022/04/05 04:35:07;;;;;;;;;4.00;2.75;;;;;;;;5093114;27;45403;-69
2022/04/05 04:37:33;;;;;;;;;3.00;3.00;;;;;;;;5093364;27;45476;-71
2022/04/05 04:39:58;;;;;;;;;3.50;3.00;;;;;;;;5093059;27;45295;-71
2022/04/05 04:42:23;;;;;;;;;2.00;2.00;;;;;;;;5093553;27;46442;-70
2022/04/05 04:44:49;;;;;;;;;3.25;3.25;;;;;;;;5093004;27;45414;-74
2022/04/05 04:47:14;;;;;;;;;5.00;5.00;;;;;;;;5093092;27;45208;-70
2022/04/05 04:49:39;;;;;;;;;4.25;3.00;;;;;;;;5090709;27;45427;-70
2022/04/05 04:52:04;;;;;;;;;4.50;3.00;;;;;;;;5095026;27;46464;-70
2022/04/05 04:54:30;;;;;;;;;4.25;4.25;;;;;;;;5097911;27;45325;-69
2022/04/05 04:56:55;;;;;;;;;4.00;4.00;;;;;;;;5074418;27;45299;-69
2022/04/05 04:59:20;;;;;;;;;4.75;3.50;;;;;;;;5093786;27;45232;-69
2022/04/05 05:01:45;;;;;;;;;3.00;3.00;;;;;;;;5096391;27;46123;-70
2022/04/05 05:04:10;;;;;;;;;4.00;3.00;;;;;;;;5096226;27;45479;-70
2022/04/05 05:06:35;;;;;;;;;3.00;3.00;;;;;;;;5098577;27;45278;-70
2022/04/05 05:09:01;;;;;;;;;6.25;4.50;;;;;;;;5095701;27;45900;-70
2022/04/05 05:11:26;;;;;;;;;5.75;3.25;;;;;;;;5095294;27;46122;-70
2022/04/05 05:13:52;;;;;;;;;3.00;3.00;;;;;;;;5078212;27;45311;-70
2022/04/05 05:16:17;;;;;;;;;3.50;3.50;;;;;;;;5081248;27;45288;-70
2022/04/05 05:18:42;;;;;;;;;3.50;3.50;;;;;;;;5097847;27;45345;-69
2022/04/05 05:21:07;;;;;;;;;5.00;4.50;;;;;;;;5097454;27;46594;-69
2022/04/05 05:23:33;;;;;;;;;5.50;4.00;;;;;;;;5095606;27;45554;-69
2022/04/05 05:25:58;;;;;;;;;4.25;4.25;;;;;;;;5093591;27;47805;-70
2022/04/05 05:28:23;;;;;;;;;6.75;3.75;;;;;;;;5093772;27;45569;-69
2022/04/05 05:30:48;;;;;;;;;4.25;4.25;;;;;;;;5096899;27;46401;-70
2022/04/05 05:33:13;;;;;;;;;6.25;5.75;;;;;;;;5077572;27;45711;-69
2022/04/05 05:35:39;;;;;;;;;3.75;3.75;;;;;;;;5095573;27;45398;-70
2022/04/05 05:38:04;;;;;;;;;6.50;5.00;;;;;;;;5095791;27;45589;-69
2022/04/05 05:40:29;;;;;;;;;4.75;4.00;;;;;;;;5078216;27;46256;-70
2022/04/05 05:43:02;;;;;;;;;5.75;4.25;;;;;;;;5095852;27;45566;-70
2022/04/05 05:45:28;;;;;;;;;6.00;6.00;;;;;;;;5096592;27;45561;-69
2022/04/05 05:47:53;;;;;;;;;4.00;4.00;;;;;;;;5095868;27;45434;-69
2022/04/05 05:50:19;;;;;;;;;5.00;5.00;;;;;;;;5093398;27;47223;-70
2022/04/05 05:52:44;;;;;;;;;5.00;3.50;;;;;;;;5094803;27;45528;-70
2022/04/05 05:55:11;;;;;;;;;5.00;4.00;;;;;;;;5096883;27;45433;-69
2022/04/05 05:57:36;;;;;;;;;6.50;6.00;;;;;;;;5097521;27;45300;-69
2022/04/05 06:00:03;;;;;;;;;7.50;6.00;;;;;;;;5074024;27;46426;-70
2022/04/05 06:02:29;;;;;;;;;5.00;5.00;;;;;;;;5094538;27;45464;-69
2022/04/05 06:04:54;;;;;;;;;6.00;6.00;;;;;;;;5094583;27;45323;-70
2022/04/05 06:07:19;;;;;;;;;8.00;6.00;;;;;;;;5095800;27;45310;-69
2022/04/05 06:09:44;;;;;;;;;5.50;5.50;;;;;;;;5095422;27;45597;-68
2022/04/05 06:12:09;;;;;;;;;4.75;4.75;;;;;;;;5080794;27;45229;-69
2022/04/05 06:14:35;;;;;;;;;6.25;6.25;;;;;;;;5080674;27;45254;-69
2022/04/05 06:17:00;;;;;;;;;8.50;7.25;;;;;;;;5076077;27;45388;-69
2022/04/05 06:19:25;;;;;;;;;8.00;5.00;;;;;;;;5065730;28;45529;-70
2022/04/05 06:21:50;;;;;;;;;5.75;5.00;;;;;;;;5071720;28;45367;-69
2022/04/05 06:24:16;;;;;;;;;6.50;6.00;;;;;;;;5076120;28;45367;-69
2022/04/05 06:26:41;;;;;;;;;6.00;5.00;;;;;;;;5067935;28;45282;-70
2022/04/05 06:29:07;;;;;;;;;6.25;5.50;;;;;;;;5065314;28;47439;-70
2022/04/05 06:31:32;;;;;;;;;6.00;6.00;;;;;;;;5074449;28;45284;-70
2022/04/05 06:33:58;;;;;;;;;8.25;6.25;;;;;;;;5070071;28;45255;-69
2022/04/05 06:36:24;;;;;;;;;8.00;7.75;;;;;;;;5077040;28;45560;-69
2022/04/05 06:38:49;;;;;;;;;7.00;6.25;;;;;;;;5075451;27;46518;-70
2022/04/05 06:41:14;;;;;;;;;7.75;6.25;;;;;;;;5081240;27;45519;-69
2022/04/05 06:43:39;;;;;;;;;8.25;7.00;;;;;;;;5074717;28;45568;-69
2022/04/05 06:46:04;;;;;;;;;8.00;6.75;;;;;;;;5077640;27;45572;-70
2022/04/05 06:48:30;;;;;;;;;7.50;7.50;;;;;;;;5076524;28;47164;-69
2022/04/05 06:50:55;;;;;;;;;5.00;4.75;;;;;;;;5077902;27;45607;-70
2022/04/05 06:53:20;;;;;;;;;5.75;5.75;;;;;;;;5056136;28;45509;-69
2022/04/05 06:55:45;;;;;;;;;7.75;6.75;;;;;;;;5071407;28;45495;-70
2022/04/05 06:58:11;;;;;;;;;6.25;5.75;;;;;;;;5073719;28;45527;-70
2022/04/05 07:00:39;;;;;;;;;6.75;6.75;;;;;;;;5076408;28;45475;-69
2022/04/05 07:03:04;;;;;;;;;8.00;7.00;;;;;;;;5073797;28;45356;-69
2022/04/05 07:05:30;;;;;;;;;8.50;6.50;;;;;;;;5074075;27;45422;-69
2022/04/05 07:07:55;;;;;;;;;7.00;7.00;;;;;;;;5073761;28;45402;-69
2022/04/05 07:10:21;;;;;;;;;8.50;6.00;;;;;;;;5080116;27;45485;-69
2022/04/05 07:12:46;;;;;;;;;6.50;5.25;;;;;;;;5095375;27;45297;-69
2022/04/05 07:15:12;;;;;;;;;6.75;5.25;;;;;;;;5093776;27;45465;-69
2022/04/05 07:17:38;;;;;;;;;7.25;5.75;;;;;;;;5094387;27;46500;-69
2022/04/05 07:20:07;;;;;;;;;6.00;5.00;;;;;;;;5091598;27;45508;-69
2022/04/05 07:22:32;;;;;;;;;5.50;5.50;;;;;;;;5093514;27;45420;-70
2022/04/05 07:24:57;;;;;;;;;6.75;6.75;;;;;;;;5093623;27;45573;-70
2022/04/05 07:27:22;;;;;;;;;7.00;6.00;;;;;;;;5096476;27;45476;-70
2022/04/05 07:29:48;;;;;;;;;8.00;6.00;;;;;;;;5094203;27;45497;-70
2022/04/05 07:32:13;;;;;;;;;5.50;5.50;;;;;;;;5093957;27;45272;-69
2022/04/05 07:34:38;;;;;;;;;6.75;6.00;;;;;;;;5093196;27;45504;-69
2022/04/05 07:37:03;;;;;;;;;7.50;7.50;;;;;;;;5093867;27;46216;-69
2022/04/05 07:39:29;;;;;;;;;9.00;6.00;;;;;;;;5094709;27;45235;-69
2022/04/05 07:41:54;;;;;;;;;6.25;6.25;;;;;;;;5094421;27;45416;-68
2022/04/05 07:44:19;;;;;;;;;7.75;6.00;;;;;;;;5092294;27;45315;-69
2022/04/05 07:46:44;;;;;;;;;9.50;8.00;;;;;;;;5090593;27;46314;-70
2022/04/05 07:49:10;;;;;;;;;7.50;7.25;;;;;;;;5094198;27;45327;-69
2022/04/05 07:51:35;;;;;;;;;8.75;7.00;;;;;;;;5095701;27;45285;-69
2022/04/05 07:54:00;;;;;;;;;8.25;5.75;;;;;;;;5093552;27;45523;-69
2022/04/05 07:56:25;;;;;;;;;9.75;6.75;;;;;;;;5094418;27;46208;-69
2022/04/05 07:58:50;;;;;;;;;7.50;6.50;;;;;;;;5093722;27;45276;-69
2022/04/05 08:01:16;;;;;;;;;8.25;6.25;;;;;;;;5093759;27;51189;-69
2022/04/05 08:03:41;;;;;;;;;7.25;6.00;;;;;;;;5096118;27;45588;-69
2022/04/05 08:06:07;;;;;;;;;7.00;7.00;;;;;;;;5093553;27;46284;-69
2022/04/05 08:08:32;;;;;;;;;5.50;5.50;;;;;;;;5093348;27;45267;-69
2022/04/05 08:10:58;;;;;;;;;7.00;6.50;;;;;;;;5091391;27;45454;-68
2022/04/05 08:13:26;;;;;;;;;7.75;6.75;;;;;;;;5074924;27;45334;-70
2022/04/05 08:15:51;;;;;;;;;8.00;7.75;;;;;;;;5094365;27;46320;-70
2022/04/05 08:18:16;;;;;;;;;6.00;6.00;;;;;;;;5094892;27;45481;-70
2022/04/05 08:20:41;;;;;;;;;7.00;7.00;;;;;;;;5094741;27;45485;-69
2022/04/05 08:23:07;;;;;;;;;8.00;8.00;;;;;;;;5089942;27;45371;-70
2022/04/05 08:25:32;;;;;;;;;7.25;6.75;;;;;;;;5094262;27;46238;-69
2022/04/05 08:27:58;;;;;;;;;10.75;8.25;;;;;;;;5078256;27;45569;-70
2022/04/05 08:30:23;;;;;;;;;6.00;6.00;;;;;;;;5097196;27;45340;-70
2022/04/05 08:32:48;;;;;;;;;7.00;5.75;;;;;;;;5096329;27;45451;-69
2022/04/05 08:35:17;;;;;;;;;6.00;6.00;;;;;;;;5096747;27;46385;-69
2022/04/05 08:37:42;;;;;;;;;7.25;6.25;;;;;;;;5096495;27;45563;-70
2022/04/05 08:40:08;;;;;;;;;8.00;8.00;;;;;;;;5095677;27;45388;-70
2022/04/05 08:42:34;;;;;;;;;7.25;7.25;;;;;;;;5098455;27;45290;-70
2022/04/05 08:45:00;;;;;;;;;8.25;6.00;;;;;;;;5096589;27;46162;-70
2022/04/05 08:47:27;;;;;;;;;7.00;4.75;;;;;;;;5096580;27;45504;-70
2022/04/05 08:49:53;;;;;;;;;7.25;7.00;;;;;;;;5094697;27;45346;-69
2022/04/05 08:52:18;;;;;;;;;9.00;9.00;;;;;;;;5091294;27;45368;-69
2022/04/05 08:54:43;;;;;;;;;8.75;8.50;;;;;;;;5098631;27;46279;-70
2022/04/05 08:57:08;;;;;;;;;8.00;7.50;;;;;;;;5096710;27;45452;-70
2022/04/05 08:59:33;;;;;;;;;10.00;5.75;;;;;;;;5078006;27;45435;-69
2022/04/05 09:01:59;;;;;;;;;8.25;6.00;;;;;;;;5098169;27;45439;-69
2022/04/05 09:04:24;;;;;;;;;7.00;7.00;;;;;;;;5097292;27;46626;-69
2022/04/05 09:06:49;;;;;;;;;6.75;5.25;;;;;;;;5097043;27;46583;-69
2022/04/05 09:09:18;;;;;;;;;6.75;6.00;;;;;;;;5096546;27;45502;-70
2022/04/05 09:11:50;;;;;;;;;7.75;7.50;;;;;;;;5096076;27;45436;-69
2022/04/05 09:14:23;;;;;;;;;8.75;6.25;;;;;;;;5095903;27;46083;-69
2022/04/05 09:17:02;;;;;;;;;5.75;5.75;;;;;;;;5095125;27;45460;-69
2022/04/05 09:19:35;;;;;;;;;7.50;7.50;;;;;;;;5088417;27;45303;-70
2022/04/05 09:22:02;;;;;;;;;7.75;6.25;;;;;;;;5095171;27;45414;-70
2022/04/05 09:24:34;;;;;;;;;8.00;7.25;;;;;;;;5098075;27;46066;-69
2022/04/05 09:26:59;;;;;;;;;7.25;5.50;;;;;;;;5093130;27;45541;-69
2022/04/05 09:29:37;;;;;;;;;7.00;7.00;;;;;;;;5096038;27;45434;-69
2022/04/05 09:32:02;;;;;;;;;9.25;8.00;;;;;;;;5095956;27;45209;-69
2022/04/05 09:34:27;;;;;;;;;5.50;5.00;;;;;;;;5095644;27;45876;-69
2022/04/05 09:36:52;;;;;;;;;6.75;6.75;;;;;;;;5096411;27;45290;-70
2022/04/05 09:39:22;;;;;;;;;9.75;7.25;;;;;;;;5097525;27;45317;-69
2022/04/05 09:42:10;;;;;;;;;8.50;6.00;;;;;;;;5078183;27;45495;-70
2022/04/05 09:44:40;;;;;;;;;8.25;5.25;;;;;;;;5093208;27;47293;-69
2022/04/05 09:47:07;;;;;;;;;7.75;6.00;;;;;;;;5090310;27;45419;-69
2022/04/05 09:49:37;;;;;;;;;8.50;7.00;;;;;;;;5095581;27;45454;-69
2022/04/05 09:52:03;;;;;;;;;5.50;5.50;;;;;;;;5076931;27;49108;-70
2022/04/05 09:54:29;;;;;;;;;8.50;6.00;;;;;;;;5097807;27;46184;-69
2022/04/05 09:57:03;;;;;;;;;7.50;6.75;;;;;;;;5096624;27;45323;-69
2022/04/05 09:59:35;;;;;;;;;7.00;7.00;;;;;;;;5090272;27;45427;-70
2022/04/05 10:02:07;;;;;;;;;6.75;5.75;;;;;;;;5085986;27;45493;-69
2022/04/05 10:04:34;;;;;;;;;7.50;7.50;;;;;;;;5092748;27;45529;-69
2022/04/05 10:06:59;;;;;;;;;7.25;5.00;;;;;;;;5096454;27;45566;-70
2022/04/05 10:09:26;;;;;;;;;8.75;8.00;;;;;;;;5095909;27;45277;-69
2022/04/05 10:11:51;;;;;;;;;7.00;7.00;;;;;;;;5093152;27;45535;-70
2022/04/05 10:14:20;;;;;;;;;8.00;7.75;;;;;;;;5094918;27;47337;-70
2022/04/05 10:16:45;;;;;;;;;7.75;6.25;;;;;;;;5095222;27;45532;-70
2022/04/05 10:19:11;;;;;;;;;7.75;6.75;;;;;;;;5094768;27;45378;-70
2022/04/05 10:21:37;;;;;;;;;7.75;7.50;;;;;;;;5096534;27;45440;-69
2022/04/05 10:24:05;;;;;;;;;9.50;7.75;;;;;;;;5095089;27;46326;-69
2022/04/05 10:26:41;;;;;;;;;7.75;6.25;;;;;;;;5096791;27;45484;-69
2022/04/05 10:29:07;;;;;;;;;6.25;6.25;;;;;;;;5096127;27;45468;-69
2022/04/05 10:31:35;;;;;;;;;7.00;7.00;;;;;;;;5094858;27;46747;-70
2022/04/05 10:34:01;;;;;;;;;7.00;7.00;;;;;;;;5094659;27;46091;-69
2022/04/05 10:36:26;;;;;;;;;9.00;8.50;;;;;;;;5097083;27;45319;-70
2022/04/05 10:39:11;;;;;;;;;9.50;7.25;;;;;;;;5094867;27;45340;-69
2022/04/05 10:41:36;;;;;;;;;8.00;8.00;;;;;;;;5093569;27;45335;-69
2022/04/05 10:44:16;;;;;;;;;7.50;7.00;;;;;;;;5092994;27;45530;-70
2022/04/05 10:46:42;;;;;;;;;6.75;6.75;;;;;;;;5093252;27;45449;-69
2022/04/05 10:49:07;;;;;;;;;8.50;7.00;;;;;;;;5093117;27;45306;-70
2022/04/05 10:51:52;;;;;;;;;6.00;6.00;;;;;;;;5094282;27;45329;-70
2022/04/05 10:54:17;;;;;;;;;10.00;8.25;;;;;;;;5095810;27;46254;-69
2022/04/05 10:57:03;;;;;;;;;8.00;8.00;;;;;;;;5095766;27;45758;-69
2022/04/05 10:59:44;;;;;;;;;6.25;6.25;;;;;;;;5093617;27;45482;-69
2022/04/05 11:02:28;;;;;;;;;6.75;6.75;;;;;;;;5093785;27;45536;-70
2022/04/05 11:05:04;;;;;;;;;7.00;7.00;;;;;;;;5092633;27;47061;-69
2022/04/05 11:07:50;;;;;;;;;6.75;5.75;;;;;;;;5093293;27;45247;-70
2022/04/05 11:10:18;;;;;;;;;9.00;8.00;;;;;;;;5092619;27;45536;-69
2022/04/05 11:12:43;;;;;;;;;7.00;7.00;;;;;;;;5096496;27;45527;-70
2022/04/05 11:15:10;;;;;;;;;8.00;7.25;;;;;;;;5093858;27;46641;-69
2022/04/05 11:17:37;;;;;;;;;5.75;5.75;;;;;;;;5092028;27;45872;-69
2022/04/05 11:20:03;;;;;;;;;7.50;6.50;;;;;;;;5094111;27;45570;-70
2022/04/05 11:22:33;;;;;;;;;8.00;7.75;;;;;;;;5091387;27;45267;-69
2022/04/05 11:25:00;;;;;;;;;6.50;6.50;;;;;;;;5093438;27;47274;-69
2022/04/05 11:27:25;;;;;;;;;8.25;7.00;;;;;;;;5096584;27;45497;-70
2022/04/05 11:30:11;;;;;;;;;6.75;6.75;;;;;;;;5093995;27;45801;-70
2022/04/05 11:32:36;;;;;;;;;7.00;7.00;;;;;;;;5078382;27;45362;-70
2022/04/05 11:35:02;;;;;;;;;8.75;6.25;;;;;;;;5093588;27;46089;-69
2022/04/05 11:37:34;;;;;;;;;8.00;6.25;;;;;;;;5093804;27;45288;-70
2022/04/05 11:40:00;;;;;;;;;6.25;6.25;;;;;;;;5093890;27;45389;-70
2022/04/05 11:42:25;;;;;;;;;8.50;6.50;;;;;;;;5094571;27;45489;-69
2022/04/05 11:44:51;;;;;;;;;8.75;8.75;;;;;;;;5094196;27;45817;-68
2022/04/05 11:47:18;;;;;;;;;7.00;5.25;;;;;;;;5093857;27;45438;-69
2022/04/05 11:49:43;;;;;;;;;7.00;7.00;;;;;;;;5095364;27;45542;-69
2022/04/05 11:52:10;;;;;;;;;9.25;7.25;;;;;;;;5082392;27;45453;-70
2022/04/05 11:56:00;;;;;;;;;9.75;9.50;;;;;;;;5095687;27;46466;-70
2022/04/05 11:57:20;;;;;;;;;6.50;6.50;;;;;;;;5095836;27;45394;-69
2022/04/05 11:59:45;;;;;;;;;6.50;6.00;;;;;;;;5091929;27;45506;-69
2022/04/05 12:02:10;;;;;;;;;8.75;8.25;;;;;;;;5095092;27;45527;-70
2022/04/05 12:04:36;;;;;;;;;8.00;6.00;;;;;;;;5096301;27;45535;-70
2022/04/05 12:07:03;;;;;;;;;6.00;6.00;;;;;;;;5096691;27;45656;-70
2022/04/05 12:09:29;;;;;;;;;9.00;6.75;;;;;;;;5098267;27;45760;-70
2022/04/05 12:11:55;;;;;;;;;7.00;6.75;;;;;;;;5094373;27;45336;-70
2022/04/05 12:14:29;;;;;;;;;7.25;6.00;;;;;;;;5094832;27;45487;-69
2022/04/05 12:17:00;;;;;;;;;5.25;5.25;;;;;;;;5094381;27;45505;-69
2022/04/05 12:19:37;;;;;;;;;7.75;7.75;;;;;;;;5095066;27;45285;-69
2022/04/05 12:22:07;;;;;;;;;6.75;6.00;;;;;;;;5096267;27;45557;-70
2022/04/05 12:24:34;;;;;;;;;8.00;8.00;;;;;;;;5098448;27;46349;-69
2022/04/05 12:27:00;;;;;;;;;10.00;8.75;;;;;;;;5094741;27;45308;-69
2022/04/05 12:29:26;;;;;;;;;7.75;6.00;;;;;;;;5096784;27;45381;-70
2022/04/05 12:31:51;;;;;;;;;6.50;6.50;;;;;;;;5097074;27;45430;-69
2022/04/05 12:34:18;;;;;;;;;7.25;6.50;;;;;;;;5097813;27;45279;-69
2022/04/05 12:36:43;;;;;;;;;8.00;7.00;;;;;;;;5098887;27;45412;-70
2022/04/05 12:39:20;;;;;;;;;7.50;6.25;;;;;;;;5097269;27;45417;-70
2022/04/05 12:41:47;;;;;;;;;7.00;6.75;;;;;;;;5095194;27;45583;-69
2022/04/05 12:44:13;;;;;;;;;6.00;5.25;;;;;;;;5093814;27;46618;-69
2022/04/05 12:46:40;;;;;;;;;8.00;8.00;;;;;;;;5095077;27;45362;-69
2022/04/05 12:49:19;;;;;;;;;6.75;6.75;;;;;;;;5077825;27;45463;-69
2022/04/05 12:51:44;;;;;;;;;8.00;7.75;;;;;;;;5094952;27;45350;-70
2022/04/05 12:54:23;;;;;;;;;8.00;8.00;;;;;;;;5096795;27;46338;-69
2022/04/05 12:56:48;;;;;;;;;6.00;6.00;;;;;;;;5097501;27;45289;-70
2022/04/05 12:59:23;;;;;;;;;7.75;6.25;;;;;;;;5091501;27;45369;-69
2022/04/05 13:01:53;;;;;;;;;8.00;7.00;;;;;;;;5083743;27;45540;-70
2022/04/05 13:04:21;;;;;;;;;8.25;7.25;;;;;;;;5095985;27;46953;-69
2022/04/05 13:06:51;;;;;;;;;8.00;8.00;;;;;;;;5097855;27;45425;-70
2022/04/05 13:09:18;;;;;;;;;5.25;5.25;;;;;;;;5097619;27;45319;-69
2022/04/05 13:11:43;;;;;;;;;7.75;7.25;;;;;;;;5093274;27;45462;-69
2022/04/05 13:14:19;;;;;;;;;7.25;7.00;;;;;;;;5093398;27;45930;-69
2022/04/05 13:16:44;;;;;;;;;6.25;6.25;;;;;;;;5096528;27;45442;-69
2022/04/05 13:19:11;;;;;;;;;8.00;7.25;;;;;;;;5095050;27;45650;-69
2022/04/05 13:21:41;;;;;;;;;7.00;7.00;;;;;;;;5097538;27;45527;-69
2022/04/05 13:24:06;;;;;;;;;10.25;8.75;;;;;;;;5095244;27;46573;-70
2022/04/05 13:26:32;;;;;;;;;7.25;7.25;;;;;;;;5092210;27;45550;-69
2022/04/05 13:29:02;;;;;;;;;8.00;8.00;;;;;;;;5096275;27;45396;-70
2022/04/05 13:31:31;;;;;;;;;6.25;5.75;;;;;;;;5096430;27;45401;-69
2022/04/05 13:33:56;;;;;;;;;7.50;7.00;;;;;;;;5096303;27;46142;-69
2022/04/05 13:36:21;;;;;;;;;6.50;6.00;;;;;;;;5091046;27;45420;-69
2022/04/05 13:38:46;;;;;;;;;7.00;6.50;;;;;;;;5092964;27;45383;-69
2022/04/05 13:41:12;;;;;;;;;5.00;5.00;;;;;;;;5088720;27;45549;-69
2022/04/05 13:43:37;;;;;;;;;8.00;8.00;;;;;;;;5095340;27;46437;-69
2022/04/05 13:46:03;;;;;;;;;7.50;7.00;;;;;;;;5094786;27;45320;-69
2022/04/05 13:48:30;;;;;;;;;6.00;6.00;;;;;;;;5097248;27;47598;-69
2022/04/05 13:50:56;;;;;;;;;5.00;5.00;;;;;;;;5093841;27;45361;-69
2022/04/05 13:53:21;;;;;;;;;8.25;8.00;;;;;;;;5092941;27;45551;-69
2022/04/05 13:55:46;;;;;;;;;5.50;4.75;;;;;;;;5093781;27;45493;-70
2022/04/05 13:58:12;;;;;;;;;6.00;6.00;;;;;;;;5095453;27;45375;-69
2022/04/05 14:00:39;;;;;;;;;7.25;7.25;;;;;;;;5096922;27;45247;-70
2022/04/05 14:03:04;;;;;;;;;6.25;5.25;;;;;;;;5093698;27;45473;-70
2022/04/05 14:05:30;;;;;;;;;7.00;7.00;;;;;;;;5093928;27;45342;-69
2022/04/05 14:07:55;;;;;;;;;6.50;5.25;;;;;;;;5093923;27;45139;-69
2022/04/05 14:10:20;;;;;;;;;6.25;6.00;;;;;;;;5089299;27;45548;-69
2022/04/05 14:12:46;;;;;;;;;8.00;7.00;;;;;;;;5073263;28;46491;-70
2022/04/05 14:15:11;;;;;;;;;7.00;7.00;;;;;;;;5074639;28;45221;-69
2022/04/05 14:17:40;;;;;;;;;7.00;6.50;;;;;;;;5072437;28;45407;-69
2022/04/05 14:20:05;;;;;;;;;7.25;6.00;;;;;;;;5072349;28;45561;-70
2022/04/05 14:22:30;;;;;;;;;7.25;4.75;;;;;;;;5076962;27;47295;-69
2022/04/05 14:24:56;;;;;;;;;8.00;7.00;;;;;;;;5074553;28;47416;-69
2022/04/05 14:27:21;;;;;;;;;6.25;6.25;;;;;;;;5072925;28;45512;-69
2022/04/05 14:29:46;;;;;;;;;6.75;6.75;;;;;;;;5074064;28;45505;-69
2022/04/05 14:32:12;;;;;;;;;6.00;6.00;;;;;;;;5074358;28;45379;-69
2022/04/05 14:34:38;;;;;;;;;5.50;5.50;;;;;;;;5074864;28;45514;-69
2022/04/05 14:37:03;;;;;;;;;6.00;6.00;;;;;;;;5076408;27;45533;-69
2022/04/05 14:39:28;;;;;;;;;5.00;5.00;;;;;;;;5078359;27;45419;-69